createdAt,value
2018-04-14T00:01:23.169Z,90.53
2018-04-14T00:03:52.083Z,90.97
2018-04-14T00:06:21.791Z,98.90
2018-04-14T00:08:51.463Z,83.93
2018-04-14T00:11:20.402Z,100.43
2018-04-14T00:13:49.717Z,95.13
2018-04-14T00:16:19.429Z,91.47
2018-04-14T00:18:48.361Z,106.40
2018-04-14T00:21:17.289Z,95.73
2018-04-14T00:23:46.985Z,91.70
2018-04-14T00:26:17.283Z,85.77
2018-04-14T00:28:45.974Z,91.70
2018-04-14T00:31:14.900Z,107.47
2018-04-14T00:33:44.621Z,100.30
2018-04-14T00:36:13.565Z,106.00
2018-04-14T00:38:43.835Z,97.40
2018-04-14T00:41:12.547Z,92.43
2018-04-14T00:43:42.760Z,96.67
2018-04-14T00:46:13.024Z,101.20
2018-04-14T00:48:42.512Z,83.57
2018-04-14T00:51:11.438Z,80.07
2018-04-14T00:53:47.470Z,76.60
2018-04-14T00:56:16.398Z,84.07
2018-04-14T00:58:45.316Z,87.33
2018-04-14T01:01:14.244Z,82.03
2018-04-14T01:03:43.169Z,82.40
2018-04-14T01:06:12.140Z,85.90
2018-04-14T01:08:42.391Z,88.00
2018-04-14T01:11:11.102Z,97.47
2018-04-14T01:13:40.421Z,74.57
2018-04-14T01:16:09.385Z,73.87
2018-04-14T01:18:38.311Z,72.50
2018-04-14T01:21:07.235Z,78.23
2018-04-14T01:23:37.519Z,80.30
2018-04-14T01:26:06.615Z,76.97
2018-04-14T01:28:36.312Z,68.90
2018-04-14T01:31:06.755Z,65.10
2018-04-14T01:33:36.459Z,68.33
2018-04-14T01:36:05.761Z,66.53
2018-04-14T01:38:34.687Z,69.57
2018-04-14T01:41:04.376Z,66.97
2018-04-14T01:43:34.070Z,62.80
2018-04-14T01:46:02.998Z,59.70
2018-04-14T01:48:32.696Z,57.27
2018-04-14T01:51:01.593Z,60.53
2018-04-14T01:53:31.295Z,61.07
2018-04-14T01:56:00.597Z,59.50
2018-04-14T01:58:30.899Z,69.13
2018-04-14T02:00:59.707Z,60.67
2018-04-14T02:03:28.799Z,66.70
2018-04-14T02:05:59.067Z,52.83
2018-04-14T02:08:29.271Z,55.13
2018-04-14T02:10:58.231Z,54.83
2018-04-14T02:13:27.532Z,53.30
2018-04-14T02:15:57.581Z,55.50
2018-04-14T02:18:26.501Z,49.13
2018-04-14T02:20:55.404Z,48.30
2018-04-14T02:23:24.325Z,47.83
2018-04-14T02:25:54.599Z,45.57
2018-04-14T02:28:24.661Z,45.57
2018-04-14T02:30:53.765Z,52.90
2018-04-14T02:33:24.151Z,47.90
2018-04-14T02:35:54.357Z,39.10
2018-04-14T02:38:23.287Z,45.97
2018-04-14T02:40:52.206Z,48.97
2018-04-14T02:43:22.467Z,48.37
2018-04-14T02:45:51.595Z,43.57
2018-04-14T02:48:21.663Z,46.47
2018-04-14T02:50:50.976Z,45.73
2018-04-14T02:53:21.243Z,40.97
2018-04-14T02:55:50.355Z,43.33
2018-04-14T02:58:20.611Z,46.43
2018-04-14T03:00:49.325Z,44.20
2018-04-14T03:03:18.625Z,42.37
2018-04-14T03:05:47.533Z,54.30
2018-04-14T03:08:17.817Z,40.27
2018-04-14T03:10:46.521Z,43.17
2018-04-14T03:13:15.843Z,45.87
2018-04-14T03:15:44.748Z,49.23
2018-04-14T03:18:14.417Z,44.03
2018-04-14T03:20:43.343Z,43.83
2018-04-14T03:23:12.643Z,57.90
2018-04-14T03:25:42.355Z,45.03
2018-04-14T03:28:12.041Z,47.97
2018-04-14T03:30:40.953Z,44.10
2018-04-14T03:33:11.223Z,54.05
2018-04-14T03:35:40.689Z,51.75
2018-04-14T03:38:09.629Z,45.87
2018-04-14T03:40:38.564Z,45.33
2018-04-14T03:43:08.835Z,41.30
2018-04-14T03:45:37.548Z,41.00
2018-04-14T03:48:06.461Z,43.90
2018-04-14T03:50:35.853Z,39.77
2018-04-14T03:53:04.742Z,40.10
2018-04-14T03:55:35.023Z,41.30
2018-04-14T03:58:03.759Z,40.07
2018-04-14T04:00:33.449Z,42.97
2018-04-14T04:03:02.758Z,37.93
2018-04-14T04:05:32.773Z,36.57
2018-04-14T04:08:03.944Z,38.83
2018-04-14T04:10:32.645Z,37.90
2018-04-14T04:13:02.941Z,42.07
2018-04-14T04:15:32.422Z,35.80
2018-04-14T04:18:02.142Z,48.17
2018-04-14T04:20:51.369Z,39.23
2018-04-14T04:23:33.649Z,38.37
2018-04-14T04:26:02.966Z,46.13
2018-04-14T04:28:32.663Z,38.07
2018-04-14T04:31:01.610Z,41.53
2018-04-14T04:33:30.503Z,41.67
2018-04-14T04:36:00.210Z,40.70
2018-04-14T04:38:29.899Z,39.87
2018-04-14T04:40:58.807Z,44.30
2018-04-14T04:43:28.487Z,43.00
2018-04-14T04:45:57.405Z,40.20
2018-04-14T04:48:29.997Z,45.60
2018-04-14T04:51:01.719Z,45.10
2018-04-14T04:53:30.631Z,47.57
2018-04-14T04:55:59.583Z,50.03
2018-04-14T04:58:29.703Z,46.90
2018-04-14T05:00:58.691Z,54.03
2018-04-14T05:03:27.605Z,56.07
2018-04-14T05:05:57.279Z,49.00
2018-04-14T05:08:26.197Z,53.80
2018-04-14T05:10:55.104Z,59.53
2018-04-14T05:13:24.480Z,64.60
2018-04-14T05:15:53.369Z,59.13
2018-04-14T05:18:22.269Z,54.23
2018-04-14T05:20:51.231Z,61.23
2018-04-14T05:23:20.163Z,66.33
2018-04-14T05:25:49.454Z,60.33
2018-04-14T05:28:19.738Z,64.20
2018-04-14T05:33:23.607Z,73.93
2018-04-14T05:35:52.531Z,62.90
2018-04-14T05:38:21.838Z,64.77
2018-04-14T05:40:50.762Z,58.33
2018-04-14T05:43:21.029Z,60.37
2018-04-14T05:45:50.133Z,56.60
2018-04-14T05:48:19.847Z,59.67
2018-04-14T05:50:50.334Z,54.67
2018-04-14T05:53:19.965Z,55.37
2018-04-14T05:55:49.287Z,54.63
2018-04-14T05:58:19.579Z,49.20
2018-04-14T06:00:48.301Z,65.00
2018-04-14T06:03:18.717Z,53.13
2018-04-14T06:05:47.651Z,58.47
2018-04-14T06:08:16.557Z,49.63
2018-04-14T06:10:46.253Z,48.00
2018-04-14T06:13:15.620Z,55.77
2018-04-14T06:15:45.322Z,48.73
2018-04-14T06:18:15.007Z,40.87
2018-04-14T06:20:43.927Z,47.20
2018-04-14T06:23:14.201Z,46.90
2018-04-14T06:25:42.923Z,47.07
2018-04-14T06:28:12.652Z,39.73
2018-04-14T06:30:43.443Z,33.87
2018-04-14T06:33:13.538Z,38.20
2018-04-14T06:35:44.166Z,37.40
2018-04-14T06:38:13.393Z,34.50
2018-04-14T06:40:43.428Z,42.10
2018-04-14T06:43:13.243Z,42.27
2018-04-14T06:45:43.609Z,43.37
2018-04-14T06:48:14.205Z,40.50
2018-04-14T06:50:45.929Z,39.40
2018-04-14T06:53:15.694Z,41.27
2018-04-14T06:55:47.395Z,41.10
2018-04-14T06:58:17.712Z,40.30
2018-04-14T07:00:47.477Z,40.70
2018-04-14T07:03:16.441Z,43.03
2018-04-14T07:05:45.387Z,46.23
2018-04-14T07:08:14.314Z,49.63
2018-04-14T07:10:44.452Z,53.63
2018-04-14T07:13:15.372Z,47.83
2018-04-14T07:15:44.333Z,53.37
2018-04-14T07:18:15.868Z,58.43
2018-04-14T07:20:47.123Z,50.27
2018-04-14T07:23:16.433Z,52.30
2018-04-14T07:25:46.888Z,49.63
2018-04-14T07:28:17.095Z,49.67
2018-04-14T07:30:48.403Z,47.03
2018-04-14T07:33:19.453Z,47.00
2018-04-14T07:35:48.219Z,53.63
2018-04-14T07:38:18.628Z,47.20
2018-04-14T07:40:47.568Z,51.67
2018-04-14T07:43:16.496Z,60.03
2018-04-14T07:45:46.928Z,56.60
2018-04-14T07:48:15.858Z,51.70
2018-04-14T07:50:44.802Z,55.70
2018-04-14T07:53:15.385Z,63.47
2018-04-14T07:55:44.337Z,56.53
2018-04-14T07:58:14.139Z,61.87
2018-04-14T08:00:43.834Z,55.77
2018-04-14T08:03:12.771Z,51.43
2018-04-14T08:05:41.707Z,63.20
2018-04-14T08:08:10.627Z,54.20
2018-04-14T08:10:40.333Z,65.13
2018-04-14T08:13:10.025Z,61.10
2018-04-14T08:15:40.459Z,62.17
2018-04-14T08:18:09.390Z,62.07
2018-04-14T08:20:38.429Z,53.90
2018-04-14T08:23:08.487Z,56.77
2018-04-14T08:25:37.409Z,61.07
2018-04-14T08:28:06.343Z,75.20
2018-04-14T08:30:35.265Z,60.73
2018-04-14T08:33:04.606Z,60.30
2018-04-14T08:35:33.950Z,61.00
2018-04-14T08:38:03.709Z,65.47
2018-04-14T08:40:32.747Z,52.27
2018-04-14T08:43:01.681Z,66.03
2018-04-14T08:45:31.388Z,63.43
2018-04-14T08:48:00.311Z,58.20
2018-04-14T08:50:30.355Z,70.30
2018-04-14T08:53:00.445Z,62.47
2018-04-14T08:55:29.364Z,64.40
2018-04-14T08:57:58.721Z,68.07
2018-04-14T09:00:27.651Z,66.60
2018-04-14T09:02:57.924Z,64.53
2018-04-14T09:05:26.641Z,60.37
2018-04-14T09:07:56.912Z,64.80
2018-04-14T09:10:27.041Z,57.30
2018-04-14T09:12:55.773Z,60.20
2018-04-14T09:15:25.829Z,55.50
2018-04-14T09:17:54.747Z,53.87
2018-04-14T09:20:23.791Z,60.10
2018-04-14T09:22:54.049Z,50.13
2018-04-14T09:25:23.187Z,63.87
2018-04-14T09:27:52.875Z,56.70
2018-04-14T09:30:21.807Z,59.23
2018-04-14T09:32:52.177Z,53.43
2018-04-14T09:35:21.654Z,59.50
2018-04-14T09:37:50.630Z,62.30
2018-04-14T09:40:19.531Z,62.73
2018-04-14T09:42:48.475Z,63.17
2018-04-14T09:45:18.175Z,57.20
2018-04-14T09:47:47.130Z,61.97
2018-04-14T09:50:18.031Z,62.23
2018-04-14T09:52:46.954Z,57.43
2018-04-14T09:55:17.219Z,65.40
2018-04-14T09:57:45.947Z,61.93
2018-04-14T10:00:22.239Z,62.63
2018-04-14T10:02:51.789Z,67.83
2018-04-14T10:05:21.427Z,60.23
2018-04-14T10:07:51.903Z,65.20
2018-04-14T10:10:20.856Z,59.97
2018-04-14T10:12:50.551Z,64.20
2018-04-14T10:15:20.672Z,73.07
2018-04-14T10:17:50.417Z,60.03
2018-04-14T10:20:20.486Z,60.83
2018-04-14T10:22:51.667Z,61.50
2018-04-14T10:25:20.388Z,53.43
2018-04-14T10:27:49.742Z,51.57
2018-04-14T10:30:20.216Z,54.93
2018-04-14T10:32:49.148Z,54.50
2018-04-14T10:35:19.439Z,54.63
2018-04-14T10:37:48.980Z,61.77
2018-04-14T10:40:17.877Z,60.00
2018-04-14T10:42:46.802Z,57.10
2018-04-14T10:45:17.090Z,61.63
2018-04-14T10:47:46.582Z,58.87
2018-04-14T10:50:16.737Z,61.33
2018-04-14T10:52:45.693Z,56.43
2018-04-14T10:55:14.629Z,62.20
2018-04-14T10:57:44.741Z,57.40
2018-04-14T11:00:15.067Z,60.70
2018-04-14T11:02:45.164Z,63.73
2018-04-14T11:05:14.687Z,52.07
2018-04-14T11:07:44.017Z,58.87
2018-04-14T11:10:13.720Z,50.93
2018-04-14T11:12:44.023Z,62.70
2018-04-14T11:15:12.799Z,59.30
2018-04-14T11:17:41.802Z,50.83
2018-04-14T11:20:11.525Z,53.70
2018-04-14T11:22:41.597Z,52.77
2018-04-14T11:25:11.309Z,50.63
2018-04-14T11:27:41.770Z,53.70
2018-04-14T11:30:11.500Z,61.00
2018-04-14T11:32:42.382Z,54.67
2018-04-14T11:35:11.860Z,52.60
2018-04-14T11:37:42.261Z,58.00
2018-04-14T11:40:12.586Z,56.43
2018-04-14T11:42:43.662Z,56.30
2018-04-14T11:45:13.108Z,52.50
2018-04-14T11:47:43.979Z,57.83
2018-04-14T11:50:13.738Z,49.20
2018-04-14T11:52:43.448Z,53.03
2018-04-14T11:55:13.731Z,51.33
2018-04-14T11:57:42.529Z,48.67
2018-04-14T12:00:11.470Z,45.00
2018-04-14T12:02:41.641Z,46.43
2018-04-14T12:05:10.996Z,42.90
2018-04-14T12:07:40.365Z,38.63
2018-04-14T12:10:10.709Z,39.57
2018-04-14T12:12:41.030Z,37.47
2018-04-14T12:15:10.718Z,35.57
2018-04-14T12:17:40.131Z,38.40
2018-04-14T12:20:09.113Z,36.00
2018-04-14T12:22:38.042Z,36.17
2018-04-14T12:25:06.975Z,34.77
2018-04-14T12:27:36.017Z,33.63
2018-04-14T12:30:06.443Z,34.53
2018-04-14T12:32:36.195Z,30.30
2018-04-14T12:35:07.101Z,32.87
2018-04-14T12:37:35.811Z,29.53
2018-04-14T12:40:06.105Z,27.70
2018-04-14T12:42:35.573Z,29.07
2018-04-14T12:45:04.529Z,34.43
2018-04-14T12:47:33.463Z,28.57
2018-04-14T12:50:03.598Z,32.03
2018-04-14T12:52:33.882Z,26.43
2018-04-14T12:55:02.710Z,27.70
2018-04-14T12:57:33.153Z,26.73
2018-04-14T13:00:03.617Z,29.10
2018-04-14T13:02:34.031Z,24.37
2018-04-14T13:05:04.495Z,27.93
2018-04-14T13:07:34.957Z,31.03
2018-04-14T13:10:03.930Z,28.00
2018-04-14T13:12:34.195Z,27.60
2018-04-14T13:15:02.937Z,28.37
2018-04-14T13:17:35.023Z,29.60
2018-04-14T13:20:09.623Z,29.73
2018-04-14T13:22:39.523Z,27.83
2018-04-14T13:25:08.843Z,27.67
2018-04-14T13:27:38.209Z,28.87
2018-04-14T13:30:08.494Z,28.83
2018-04-14T13:32:37.220Z,24.90
2018-04-14T13:35:06.191Z,28.70
2018-04-14T13:37:35.982Z,27.37
2018-04-14T13:40:05.675Z,27.63
2018-04-14T13:42:35.381Z,26.27
2018-04-14T13:45:05.095Z,28.33
2018-04-14T13:47:34.032Z,28.00
2018-04-14T13:50:05.881Z,26.12
2018-04-14T13:52:34.613Z,28.07
2018-04-14T13:55:04.685Z,29.30
2018-04-14T13:57:34.008Z,30.40
2018-04-14T14:00:04.302Z,28.30
2018-04-14T14:02:33.566Z,28.20
2018-04-14T14:05:04.124Z,28.37
2018-04-14T14:07:33.854Z,31.53
2018-04-14T14:10:03.554Z,28.50
2018-04-14T14:12:33.231Z,30.30
2018-04-14T14:15:02.936Z,24.63
2018-04-14T14:17:31.914Z,29.10
2018-04-14T14:20:02.225Z,26.20
2018-04-14T14:22:32.445Z,26.97
2018-04-14T14:25:01.174Z,27.60
2018-04-14T14:27:30.131Z,27.13
2018-04-14T14:29:59.857Z,31.33
2018-04-14T14:32:30.175Z,26.80
2018-04-14T14:34:59.683Z,28.63
2018-04-14T14:37:29.736Z,30.07
2018-04-14T14:39:58.706Z,33.33
2018-04-14T14:42:28.442Z,27.30
2018-04-14T14:44:57.337Z,29.07
2018-04-14T14:47:26.251Z,30.73
2018-04-14T14:50:01.233Z,29.77
2018-04-14T14:52:30.593Z,25.40
2018-04-14T14:54:59.558Z,28.17
2018-04-14T14:57:29.619Z,29.77
2018-04-14T14:59:59.695Z,26.90
2018-04-14T15:02:29.633Z,29.30
2018-04-14T15:04:58.599Z,28.70
2018-04-14T15:07:27.521Z,28.80
2018-04-14T15:09:56.445Z,29.53
2018-04-14T15:12:25.399Z,31.42
2018-04-14T15:14:54.715Z,29.07
2018-04-14T15:17:24.434Z,29.83
2018-04-14T15:19:53.773Z,27.20
2018-04-14T15:22:23.467Z,28.43
2018-04-14T15:24:52.425Z,29.07
2018-04-14T15:27:22.947Z,27.50
2018-04-14T15:29:52.633Z,28.23
2018-04-14T15:32:22.352Z,28.60
2018-04-14T15:34:52.641Z,28.20
2018-04-14T15:37:21.342Z,26.30
2018-04-14T15:39:50.303Z,27.20
2018-04-14T15:42:20.607Z,28.93
2018-04-14T15:44:50.109Z,27.53
2018-04-14T15:47:19.026Z,27.90
2018-04-14T15:49:47.953Z,27.17
2018-04-14T15:52:17.726Z,28.33
2018-04-14T15:54:47.780Z,26.27
2018-04-14T15:57:16.709Z,25.73
2018-04-14T15:59:46.424Z,25.30
2018-04-14T16:02:16.686Z,22.43
2018-04-14T16:04:45.571Z,24.67
2018-04-14T16:07:14.507Z,26.03
2018-04-14T16:09:44.797Z,24.83
2018-04-14T16:12:13.619Z,26.33
2018-04-14T16:14:43.695Z,22.63
2018-04-14T16:17:13.408Z,25.80
2018-04-14T16:19:42.437Z,25.20
2018-04-14T16:22:12.179Z,27.67
2018-04-14T16:24:41.521Z,25.27
2018-04-14T16:27:10.698Z,25.77
2018-04-14T16:29:40.030Z,24.43
2018-04-14T16:32:10.334Z,28.90
2018-04-14T16:34:39.065Z,29.37
2018-04-14T16:37:08.005Z,28.87
2018-04-14T16:39:38.309Z,25.97
2018-04-14T16:42:07.430Z,29.20
2018-04-14T16:44:36.756Z,28.17
2018-04-14T16:47:05.764Z,29.60
2018-04-14T16:49:35.463Z,28.17
2018-04-14T16:52:06.002Z,26.80
2018-04-14T16:54:35.705Z,28.70
2018-04-14T16:57:06.150Z,30.37
2018-04-14T16:59:35.489Z,34.53
2018-04-14T17:02:05.798Z,30.67
2018-04-14T17:04:34.524Z,27.17
2018-04-14T17:07:04.804Z,29.20
2018-04-14T17:09:34.909Z,29.20
2018-04-14T17:12:03.603Z,27.00
2018-04-14T17:14:32.542Z,28.40
2018-04-14T17:17:02.627Z,29.03
2018-04-14T17:19:32.925Z,28.30
2018-04-14T17:22:02.982Z,30.17
2018-04-14T17:24:31.752Z,27.53
2018-04-14T17:27:00.693Z,30.87
2018-04-14T17:29:30.837Z,27.93
2018-04-14T17:31:59.769Z,28.67
2018-04-14T17:34:30.262Z,26.83
2018-04-14T17:36:59.184Z,31.23
2018-04-14T17:39:28.625Z,28.23
2018-04-14T17:41:58.914Z,30.67
2018-04-14T17:44:27.649Z,34.40
2018-04-14T17:46:57.365Z,31.47
2018-04-14T17:49:27.803Z,28.50
2018-04-14T17:51:58.080Z,28.83
2018-04-14T17:54:26.810Z,36.03
2018-04-14T17:56:55.784Z,30.30
2018-04-14T17:59:25.483Z,39.27
2018-04-14T18:01:55.007Z,34.27
2018-04-14T18:04:25.065Z,35.10
2018-04-14T18:06:54.187Z,31.07
2018-04-14T18:09:23.890Z,35.37
2018-04-14T18:11:54.153Z,31.07
2018-04-14T18:14:23.293Z,31.20
2018-04-14T18:16:52.630Z,40.73
2018-04-14T18:19:22.915Z,34.27
2018-04-14T18:21:52.432Z,35.23
2018-04-14T18:24:22.820Z,38.57
2018-04-14T18:26:51.561Z,37.10
2018-04-14T18:29:21.869Z,37.40
2018-04-14T18:31:50.591Z,40.73
2018-04-14T18:34:20.930Z,37.67
2018-04-14T18:36:49.880Z,37.77
2018-04-14T18:39:19.854Z,38.50
2018-04-14T18:41:49.251Z,41.37
2018-04-14T18:44:19.569Z,40.43
2018-04-14T18:46:49.710Z,37.77
2018-04-14T18:49:19.280Z,37.17
2018-04-14T18:51:48.988Z,36.70
2018-04-14T18:54:17.990Z,39.87
2018-04-14T18:56:48.311Z,36.57
2018-04-14T18:59:17.160Z,40.40
2018-04-14T19:01:46.190Z,41.80
2018-04-14T19:04:16.476Z,42.57
2018-04-14T19:06:46.761Z,36.70
2018-04-14T19:09:15.513Z,39.03
2018-04-14T19:11:44.500Z,45.73
2018-04-14T19:14:14.827Z,47.93
2018-04-14T19:16:44.692Z,40.53
2018-04-14T19:19:15.002Z,42.90
2018-04-14T19:21:44.254Z,36.27
2018-04-14T19:24:14.637Z,40.33
2018-04-14T19:26:44.822Z,48.50
2018-04-14T19:29:14.927Z,43.20
2018-04-14T19:31:44.094Z,42.50
2018-04-14T19:34:15.230Z,40.70
2018-04-14T19:36:44.299Z,42.07
2018-04-14T19:39:14.606Z,43.70
2018-04-14T19:41:44.867Z,42.40
2018-04-14T19:44:14.489Z,35.97
2018-04-14T19:46:44.236Z,40.13
2018-04-14T19:49:14.541Z,39.87
2018-04-14T19:51:44.622Z,43.63
2018-04-14T19:54:14.800Z,41.37
2018-04-14T19:56:44.281Z,42.17
2018-04-14T19:59:14.397Z,43.50
2018-04-14T20:01:43.343Z,39.93
2018-04-14T20:04:14.165Z,40.20
2018-04-14T20:06:43.812Z,42.07
2018-04-14T20:09:14.161Z,44.20
2018-04-14T20:11:43.309Z,41.93
2018-04-14T20:14:13.634Z,40.67
2018-04-14T20:16:42.347Z,42.77
2018-04-14T20:19:13.160Z,44.67
2018-04-14T20:21:42.133Z,44.43
2018-04-14T20:24:11.087Z,39.60
2018-04-14T20:26:42.195Z,37.83
2018-04-14T20:29:11.527Z,40.90
2018-04-14T20:31:41.831Z,44.30
2018-04-14T20:34:11.350Z,42.80
2018-04-14T20:36:41.676Z,43.37
2018-04-14T20:39:10.793Z,41.27
2018-04-14T20:41:39.741Z,46.07
2018-04-14T20:44:10.178Z,43.63
2018-04-14T20:46:40.687Z,51.03
2018-04-14T20:49:10.412Z,48.40
2018-04-14T20:51:40.140Z,51.87
2018-04-14T20:54:09.095Z,52.23
2018-04-14T20:56:39.603Z,46.83
2018-04-14T20:59:09.509Z,42.97
2018-04-14T21:01:38.442Z,44.57
2018-04-14T21:04:08.165Z,45.63
2018-04-14T21:06:37.497Z,45.20
2018-04-14T21:09:06.845Z,49.83
2018-04-14T21:11:36.561Z,46.47
2018-04-14T21:14:06.294Z,49.70
2018-04-14T21:16:35.328Z,45.53
2018-04-14T21:19:05.637Z,43.27
2018-04-14T21:21:35.378Z,50.07
2018-04-14T21:24:05.442Z,42.50
2018-04-14T21:26:35.902Z,49.97
2018-04-14T21:29:06.253Z,43.20
2018-04-14T21:31:34.897Z,50.60
2018-04-14T21:34:03.848Z,51.00
2018-04-14T21:36:33.589Z,59.93
2018-04-14T21:39:02.527Z,59.43
2018-04-14T21:41:31.467Z,56.30
2018-04-14T21:44:00.411Z,66.47
2018-04-14T21:46:29.742Z,54.13
2018-04-14T21:48:58.668Z,55.50
2018-04-14T21:51:27.988Z,60.90
2018-04-14T21:53:56.934Z,53.90
2018-04-14T21:56:25.857Z,56.00
2018-04-14T21:58:55.186Z,58.87
2018-04-14T22:01:24.876Z,57.13
2018-04-14T22:03:53.805Z,50.73
2018-04-14T22:06:24.085Z,52.00
2018-04-14T22:08:52.806Z,54.67
2018-04-14T22:11:22.495Z,53.07
2018-04-14T22:13:51.458Z,55.10
2018-04-14T22:16:20.375Z,49.23
2018-04-14T22:18:49.302Z,50.70
2018-04-14T22:21:18.225Z,48.60
2018-04-14T22:23:47.181Z,51.67
2018-04-14T22:26:17.455Z,51.07
2018-04-14T22:28:46.943Z,45.07
2018-04-14T22:31:15.987Z,49.47
2018-04-14T22:33:44.906Z,48.57
2018-04-14T22:36:13.889Z,43.40
2018-04-14T22:38:44.321Z,48.93
2018-04-14T22:41:14.787Z,46.43
2018-04-14T22:43:43.867Z,44.33
2018-04-14T22:46:13.551Z,55.17
2018-04-14T22:48:43.851Z,43.10
2018-04-14T22:51:13.321Z,45.53
2018-04-14T22:53:42.346Z,45.23
2018-04-14T22:56:12.431Z,40.20
2018-04-14T22:58:42.459Z,34.63
2018-04-14T23:01:11.356Z,40.13
2018-04-14T23:03:40.695Z,45.60
2018-04-14T23:06:09.615Z,42.63
2018-04-14T23:08:38.557Z,45.50
2018-04-14T23:11:07.483Z,44.43
2018-04-14T23:13:37.163Z,34.67
2018-04-14T23:16:07.445Z,39.90
2018-04-14T23:18:36.147Z,45.83
2018-04-14T23:21:05.074Z,41.33
2018-04-14T23:23:34.015Z,47.47
2018-04-14T23:26:02.923Z,44.80
2018-04-14T23:28:33.215Z,46.53
2018-04-14T23:31:01.921Z,45.60
2018-04-14T23:33:30.937Z,48.93
2018-04-14T23:35:59.841Z,42.13
2018-04-14T23:38:29.536Z,39.47
2018-04-14T23:40:59.214Z,43.17
2018-04-14T23:43:28.900Z,39.80
2018-04-14T23:45:59.333Z,39.70
2018-04-14T23:48:29.597Z,43.10
2018-04-14T23:50:58.313Z,37.37
2018-04-14T23:53:28.591Z,45.03
2018-04-14T23:55:57.315Z,37.70
2018-04-14T23:58:26.239Z,39.50
